createdAt,value
2023-01-05T17:01:58.511Z,135.00
2023-01-05T17:03:31.795Z,134.50
2023-01-05T17:05:04.157Z,128.75
2023-01-05T17:06:36.446Z,132.50
2023-01-05T17:08:19.625Z,142.75
2023-01-05T17:09:51.879Z,131.75
2023-01-05T17:11:24.194Z,143.25
2023-01-05T17:13:08.246Z,147.75
2023-01-05T17:14:41.575Z,123.00
2023-01-05T17:16:13.862Z,121.50
2023-01-05T17:17:45.811Z,105.00
2023-01-05T17:19:19.574Z,106.60
2023-01-05T17:20:52.628Z,103.20
2023-01-05T17:22:24.690Z,113.25
2023-01-05T17:23:58.132Z,109.00
2023-01-05T17:25:32.853Z,110.00
2023-01-05T17:27:05.084Z,107.25
2023-01-05T17:28:37.580Z,101.00
2023-01-05T17:30:16.428Z,87.40
2023-01-05T17:31:48.357Z,85.25
2023-01-05T17:33:20.292Z,83.25
2023-01-05T17:34:52.321Z,81.75
2023-01-05T17:36:27.315Z,76.75
2023-01-05T17:37:59.565Z,75.50
2023-01-05T17:41:04.937Z,88.50
2023-01-05T17:42:42.771Z,86.50
2023-01-05T17:44:14.929Z,80.00
2023-01-05T17:45:47.053Z,82.25
2023-01-05T17:47:19.219Z,75.75
2023-01-05T17:48:51.068Z,88.75
2023-01-05T17:50:27.935Z,86.50
2023-01-05T17:51:59.795Z,81.00
2023-01-05T17:53:31.625Z,88.00
2023-01-05T17:55:03.960Z,82.25
2023-01-05T17:56:36.293Z,95.25
2023-01-05T17:58:09.090Z,88.25
2023-01-05T18:01:14.507Z,81.25
2023-01-05T18:02:47.145Z,87.25
2023-01-05T18:04:19.580Z,79.75
2023-01-05T18:05:53.089Z,82.00
2023-01-05T18:07:25.478Z,84.25
2023-01-05T18:08:57.629Z,81.75
2023-01-05T18:10:29.562Z,84.25
2023-01-05T18:12:01.721Z,74.75
2023-01-05T18:13:34.124Z,73.75
2023-01-05T18:15:07.066Z,75.00
2023-01-05T18:16:39.097Z,79.75
2023-01-05T18:18:11.422Z,79.00
2023-01-05T18:21:20.390Z,73.25
2023-01-05T18:22:52.449Z,65.25
2023-01-05T18:24:24.447Z,67.25
2023-01-05T18:25:56.483Z,69.00
2023-01-05T18:27:28.538Z,69.50
2023-01-05T18:29:00.370Z,65.50
2023-01-05T18:30:32.308Z,61.75
2023-01-05T18:32:04.759Z,73.75
2023-01-05T18:33:36.717Z,71.25
2023-01-05T18:35:10.207Z,83.25
2023-01-05T18:36:42.624Z,87.25
2023-01-05T18:38:14.784Z,85.50
2023-01-05T18:39:47.182Z,84.75
2023-01-05T18:41:25.816Z,76.00
2023-01-05T18:42:58.381Z,94.50
2023-01-05T18:44:30.933Z,93.80
2023-01-05T18:46:04.345Z,92.00
2023-01-05T18:47:36.409Z,105.80
2023-01-05T18:49:08.686Z,81.60
2023-01-05T18:50:43.318Z,92.60
2023-01-05T18:52:15.637Z,94.00
2023-01-05T18:53:47.806Z,97.20
2023-01-05T18:55:20.137Z,97.60
2023-01-05T18:56:52.306Z,103.60
2023-01-05T18:58:24.434Z,102.80
2023-01-05T18:59:56.534Z,100.80
2023-01-05T19:01:28.525Z,108.20
2023-01-05T19:03:00.688Z,102.00
2023-01-05T19:04:32.926Z,103.00
2023-01-05T19:06:07.014Z,109.00
2023-01-05T19:07:40.057Z,118.20
2023-01-05T19:09:12.785Z,104.25
2023-01-05T19:10:45.120Z,112.00
2023-01-05T19:12:17.407Z,121.25
2023-01-05T19:13:50.206Z,113.25
2023-01-05T19:15:22.449Z,118.75
2023-01-05T19:16:54.536Z,113.00
2023-01-05T19:18:27.179Z,104.00
2023-01-05T19:19:59.482Z,112.75
2023-01-05T19:21:32.570Z,108.75
2023-01-05T19:23:04.427Z,114.25
2023-01-05T19:24:36.393Z,106.00
2023-01-05T19:26:08.387Z,101.40
2023-01-05T19:27:40.546Z,109.50
2023-01-05T19:29:12.672Z,109.25
2023-01-05T19:30:44.574Z,112.00
2023-01-05T19:32:16.466Z,110.75
2023-01-05T19:33:48.383Z,102.60
2023-01-05T19:35:20.278Z,112.40
2023-01-05T19:36:52.203Z,107.20
2023-01-05T19:38:24.448Z,103.80
2023-01-05T19:39:56.526Z,93.00
2023-01-05T19:41:28.770Z,92.80
2023-01-05T19:43:00.943Z,96.20
2023-01-05T19:44:32.891Z,90.75
2023-01-05T19:46:06.903Z,88.40
2023-01-05T19:47:41.044Z,70.00
2023-01-05T19:49:16.686Z,102.80
2023-01-05T19:51:00.117Z,90.20
2023-01-05T19:52:32.446Z,83.75
2023-01-05T19:54:04.944Z,76.00
2023-01-05T19:55:39.347Z,87.00
2023-01-05T19:57:11.505Z,88.75
2023-01-05T19:58:44.055Z,91.25
2023-01-05T20:00:16.780Z,95.80
2023-01-05T20:01:49.011Z,103.00
2023-01-05T20:03:20.987Z,103.60
2023-01-05T20:04:53.440Z,104.60
2023-01-05T20:06:34.323Z,109.25
2023-01-05T20:08:06.581Z,101.50
2023-01-05T20:09:38.495Z,118.25
2023-01-05T20:11:12.703Z,120.25
2023-01-05T20:12:44.682Z,116.75
2023-01-05T20:14:17.524Z,115.00
2023-01-05T20:15:49.584Z,113.50
2023-01-05T20:17:21.490Z,115.75
2023-01-05T20:18:53.619Z,112.25
2023-01-05T20:20:25.595Z,103.00
2023-01-05T20:21:58.619Z,109.00
2023-01-05T20:23:35.314Z,106.20
2023-01-05T20:25:09.234Z,113.00
2023-01-05T20:26:42.277Z,112.50
2023-01-05T20:28:14.432Z,110.25
2023-01-05T20:29:46.504Z,110.50
2023-01-05T20:31:29.665Z,110.25
2023-01-05T20:33:01.605Z,112.00
2023-01-05T20:34:36.406Z,119.50
2023-01-05T20:36:08.362Z,121.75
2023-01-05T20:37:40.435Z,110.50
2023-01-05T20:39:15.114Z,96.25
2023-01-05T20:40:47.026Z,109.40
2023-01-05T20:42:19.043Z,107.25
2023-01-05T20:43:51.352Z,107.00
2023-01-05T20:45:23.400Z,121.25
2023-01-05T20:46:55.709Z,121.25
2023-01-05T20:48:27.787Z,120.00
2023-01-05T20:49:59.769Z,117.75
2023-01-05T20:51:31.679Z,111.75
2023-01-05T20:53:03.639Z,115.75
2023-01-05T20:54:35.586Z,118.50
2023-01-05T20:56:09.570Z,109.40
2023-01-05T20:57:41.540Z,114.75
2023-01-05T20:59:23.146Z,108.20
2023-01-05T21:01:09.413Z,105.60
2023-01-05T21:02:42.998Z,103.60
2023-01-05T21:04:15.188Z,95.00
2023-01-05T21:05:47.274Z,100.00
2023-01-05T21:07:20.362Z,99.60
2023-01-05T21:08:52.324Z,93.20
2023-01-05T21:10:24.297Z,99.00
2023-01-05T21:11:56.506Z,106.60
2023-01-05T21:13:31.743Z,104.60
2023-01-05T21:15:05.234Z,105.25
2023-01-05T21:16:39.941Z,105.20
2023-01-05T21:18:12.003Z,102.20
2023-01-05T21:19:44.280Z,109.75
2023-01-05T21:21:17.834Z,108.80
2023-01-05T21:22:49.847Z,108.25
2023-01-05T21:24:21.887Z,104.20
2023-01-05T21:26:07.083Z,103.20
2023-01-05T21:27:44.193Z,101.60
2023-01-05T21:29:16.497Z,98.00
2023-01-05T21:30:48.336Z,120.00
2023-01-05T21:32:20.336Z,123.25
2023-01-05T21:33:52.575Z,108.00
2023-01-05T21:35:24.505Z,100.60
2023-01-05T21:36:56.471Z,94.20
2023-01-05T21:39:01.648Z,90.20
2023-01-05T21:40:20.389Z,86.00
2023-01-05T21:42:11.327Z,84.75
2023-01-05T21:43:43.245Z,94.80
2023-01-05T21:45:15.155Z,90.25
2023-01-05T21:46:47.481Z,92.40
2023-01-05T21:48:19.373Z,86.20
2023-01-05T21:49:51.439Z,89.75
2023-01-05T21:51:42.006Z,88.00
2023-01-05T21:53:33.521Z,86.00
2023-01-05T21:55:31.397Z,90.00
2023-01-05T21:57:03.287Z,88.20
2023-01-05T21:58:35.600Z,92.25
2023-01-05T22:00:08.680Z,88.80
2023-01-05T22:01:40.653Z,102.80
2023-01-05T22:03:12.623Z,88.40
2023-01-05T22:04:44.503Z,93.75
2023-01-05T22:06:16.641Z,93.25
2023-01-05T22:07:48.460Z,88.50
2023-01-05T22:09:20.320Z,99.40
2023-01-05T22:10:56.099Z,96.40
2023-01-05T22:12:28.024Z,86.25
2023-01-05T22:14:00.080Z,89.50
2023-01-05T22:15:31.930Z,92.40
2023-01-05T22:17:04.889Z,91.50
2023-01-05T22:18:36.738Z,85.00
2023-01-05T22:20:09.170Z,89.75
2023-01-05T22:21:41.199Z,81.25
2023-01-05T22:23:13.912Z,87.75
2023-01-05T22:24:45.812Z,73.25
2023-01-05T22:26:18.548Z,73.00
2023-01-05T22:27:50.405Z,85.50
2023-01-05T22:29:22.388Z,79.75
2023-01-05T22:31:07.633Z,80.00
2023-01-05T22:32:39.631Z,70.00
2023-01-05T22:34:11.526Z,73.50
2023-01-05T22:35:43.388Z,77.00
2023-01-05T22:37:16.312Z,72.75
2023-01-05T22:38:49.001Z,74.25
2023-01-05T22:40:20.956Z,71.50
2023-01-05T22:41:52.861Z,66.00
2023-01-05T22:43:25.204Z,67.25
2023-01-05T22:44:57.130Z,64.75
2023-01-05T22:46:29.610Z,62.75
2023-01-05T22:48:01.608Z,64.75
2023-01-05T22:49:33.713Z,63.00
2023-01-05T22:51:07.669Z,52.00
2023-01-05T22:52:39.490Z,53.00
2023-01-05T22:54:11.435Z,61.50
2023-01-05T22:55:44.173Z,59.00
2023-01-05T22:57:16.099Z,54.75
2023-01-05T22:58:48.088Z,53.50
2023-01-05T23:00:19.981Z,49.50
2023-01-05T23:01:51.957Z,46.00
2023-01-05T23:03:23.846Z,49.40
2023-01-05T23:04:55.909Z,43.80
2023-01-05T23:06:27.972Z,44.00
2023-01-05T23:07:59.882Z,44.20
2023-01-05T23:09:31.722Z,44.60
2023-01-05T23:11:08.660Z,44.60
2023-01-05T23:12:40.719Z,43.00
2023-01-05T23:14:12.641Z,45.40
2023-01-05T23:15:44.491Z,37.60
2023-01-05T23:17:16.402Z,43.20
2023-01-05T23:18:49.927Z,40.80
2023-01-05T23:20:21.922Z,41.20
2023-01-05T23:21:53.919Z,40.80
2023-01-05T23:23:26.248Z,38.80
2023-01-05T23:37:01.062Z,30.50
2023-01-05T23:38:33.260Z,33.40
2023-01-05T23:40:05.762Z,26.20
2023-01-05T23:41:37.700Z,20.00
2023-01-05T23:43:13.109Z,30.00
2023-01-05T23:44:45.001Z,21.40
2023-01-05T23:46:20.469Z,26.80
2023-01-05T23:47:52.529Z,26.00
2023-01-05T23:49:24.372Z,23.80
2023-01-05T23:50:56.574Z,20.80
2023-01-05T23:52:28.499Z,19.60
2023-01-05T23:54:00.439Z,21.60
2023-01-05T23:55:32.327Z,20.80
2023-01-05T23:57:04.246Z,23.60
2023-01-05T23:58:36.196Z,22.20
